createdAt,value
2022-12-08T00:01:46.328Z,98602.73
2022-12-08T00:04:17.296Z,98600.33
2022-12-08T00:07:05.770Z,98595.90
2022-12-08T00:09:39.983Z,98587.98
2022-12-08T00:12:15.334Z,98590.36
2022-12-08T00:14:47.449Z,98586.69
2022-12-08T00:17:18.820Z,98581.13
2022-12-08T00:19:50.581Z,98587.00
2022-12-08T00:22:21.443Z,98590.05
2022-12-08T00:24:52.445Z,98592.05
2022-12-08T00:27:23.330Z,98592.77
2022-12-08T00:29:54.249Z,98596.08
2022-12-08T00:32:25.032Z,98588.56
2022-12-08T00:34:55.826Z,98598.60
2022-12-08T00:37:26.657Z,98602.46
2022-12-08T00:39:57.679Z,98603.27
2022-12-08T00:42:28.445Z,98597.93
2022-12-08T00:44:59.184Z,98594.88
2022-12-08T00:47:30.017Z,98588.89
2022-12-08T00:50:01.531Z,98583.67
2022-12-08T00:52:32.526Z,98586.36
2022-12-08T00:55:03.247Z,98582.19
2022-12-08T00:57:34.437Z,98591.50
2022-12-08T01:00:06.154Z,98587.38
2022-12-08T01:02:37.283Z,98593.24
2022-12-08T01:05:09.241Z,98597.25
2022-12-08T01:07:40.147Z,98603.04
2022-12-08T01:10:12.169Z,98607.13
2022-12-08T01:12:43.050Z,98601.17
2022-12-08T01:15:14.267Z,98598.04
2022-12-08T01:17:45.026Z,98596.81
2022-12-08T01:20:16.205Z,98598.02
2022-12-08T01:22:47.016Z,98595.20
2022-12-08T01:25:17.739Z,98590.98
2022-12-08T01:27:48.580Z,98596.38
2022-12-08T01:30:20.316Z,98599.10
2022-12-08T01:32:51.164Z,98602.17
2022-12-08T01:35:22.007Z,98599.56
2022-12-08T01:37:53.063Z,98600.20
2022-12-08T01:40:24.095Z,98595.27
2022-12-08T01:42:54.795Z,98593.34
2022-12-08T01:45:28.649Z,98591.73
2022-12-08T01:48:04.686Z,98590.23
2022-12-08T01:50:36.681Z,98588.72
2022-12-08T01:53:14.941Z,98585.11
2022-12-08T01:55:51.061Z,98584.17
2022-12-08T01:58:26.218Z,98579.39
2022-12-08T02:00:57.269Z,98579.79
2022-12-08T02:03:32.898Z,98581.53
2022-12-08T02:06:04.774Z,98579.58
2022-12-08T02:08:37.423Z,98573.96
2022-12-08T02:11:12.571Z,98570.59
2022-12-08T02:13:47.362Z,98571.06
2022-12-08T02:16:31.151Z,98570.52
2022-12-08T02:19:30.697Z,98571.46
2022-12-08T02:22:07.922Z,98561.15
2022-12-08T02:24:42.208Z,98557.83
2022-12-08T02:27:29.608Z,98562.20
2022-12-08T02:30:20.263Z,98561.91
2022-12-08T02:33:19.550Z,98562.22
2022-12-08T02:35:58.150Z,98557.34
2022-12-08T02:38:44.527Z,98551.55
2022-12-08T02:41:27.540Z,98549.27
2022-12-08T02:44:07.599Z,98550.02
2022-12-08T02:46:39.466Z,98552.23
2022-12-08T02:49:10.844Z,98553.73
2022-12-08T02:51:41.527Z,98554.27
2022-12-08T02:54:13.017Z,98551.81
2022-12-08T02:57:01.582Z,98550.63
2022-12-08T02:59:46.735Z,98545.50
2022-12-08T03:02:36.361Z,98545.20
2022-12-08T03:05:14.836Z,98540.08
2022-12-08T03:07:51.899Z,98541.96
2022-12-08T03:10:28.999Z,98541.98
2022-12-08T03:13:05.483Z,98539.98
2022-12-08T03:15:38.771Z,98537.56
2022-12-08T03:18:12.103Z,98535.66
2022-12-08T03:20:44.382Z,98533.91
2022-12-08T03:23:17.528Z,98536.74
2022-12-08T03:25:53.091Z,98536.85
2022-12-08T03:28:24.376Z,98533.16
2022-12-08T03:31:01.576Z,98535.61
2022-12-08T03:33:38.154Z,98531.24
2022-12-08T03:36:12.319Z,98529.94
2022-12-08T03:38:44.438Z,98528.86
2022-12-08T03:41:21.011Z,98529.55
2022-12-08T03:43:53.819Z,98525.26
2022-12-08T03:48:57.398Z,98526.15
2022-12-08T03:51:28.461Z,98523.13
2022-12-08T03:53:59.305Z,98528.04
2022-12-08T03:56:32.605Z,98522.47
2022-12-08T03:59:03.759Z,98515.14
2022-12-08T04:01:34.947Z,98516.95
2022-12-08T04:04:06.178Z,98516.30
2022-12-08T04:06:37.127Z,98517.48
2022-12-08T04:09:07.982Z,98517.00
2022-12-08T04:11:39.071Z,98520.61
2022-12-08T04:14:10.114Z,98522.06
2022-12-08T04:16:40.750Z,98525.70
2022-12-08T04:19:11.441Z,98521.10
2022-12-08T04:21:42.177Z,98517.75
2022-12-08T04:24:12.863Z,98518.77
2022-12-08T04:26:43.473Z,98518.23
2022-12-08T04:29:14.135Z,98518.14
2022-12-08T04:31:45.119Z,98518.58
2022-12-08T04:34:15.834Z,98518.00
2022-12-08T04:36:46.404Z,98515.54
2022-12-08T04:39:16.978Z,98515.47
2022-12-08T04:41:47.719Z,98513.53
2022-12-08T04:44:18.520Z,98515.09
2022-12-08T04:46:49.325Z,98512.47
2022-12-08T04:49:20.238Z,98511.62
2022-12-08T04:51:51.059Z,98513.14
2022-12-08T04:54:21.716Z,98511.35
2022-12-08T04:56:52.505Z,98508.61
2022-12-08T04:59:23.115Z,98510.23
2022-12-08T05:01:54.114Z,98506.36
2022-12-08T05:04:25.470Z,98509.90
2022-12-08T05:06:56.091Z,98509.48
2022-12-08T05:09:27.074Z,98508.58
2022-12-08T05:11:57.667Z,98509.25
2022-12-08T05:14:28.734Z,98508.73
2022-12-08T05:17:00.309Z,98508.38
2022-12-08T05:19:31.652Z,98506.38
2022-12-08T05:22:02.210Z,98506.95
2022-12-08T05:24:32.865Z,98505.92
2022-12-08T05:27:03.746Z,98501.90
2022-12-08T05:29:34.405Z,98498.88
2022-12-08T05:32:05.117Z,98497.65
2022-12-08T05:34:35.910Z,98501.71
2022-12-08T05:37:06.486Z,98504.17
2022-12-08T05:39:37.246Z,98502.49
2022-12-08T05:42:08.129Z,98499.36
2022-12-08T05:44:39.128Z,98504.23
2022-12-08T05:47:09.716Z,98499.53
2022-12-08T05:49:40.313Z,98505.98
2022-12-08T05:52:10.934Z,98502.38
2022-12-08T05:54:41.517Z,98500.86
2022-12-08T05:57:12.366Z,98502.61
2022-12-08T05:59:43.151Z,98501.15
2022-12-08T06:02:13.877Z,98503.77
2022-12-08T06:04:44.933Z,98505.73
2022-12-08T06:07:16.277Z,98507.63
2022-12-08T06:09:47.048Z,98508.05
2022-12-08T06:12:17.689Z,98507.60
2022-12-08T06:14:48.358Z,98506.42
2022-12-08T06:17:18.931Z,98506.91
2022-12-08T06:19:49.664Z,98507.67
2022-12-08T06:22:20.409Z,98508.23
2022-12-08T06:24:51.268Z,98504.73
2022-12-08T06:27:22.705Z,98504.63
2022-12-08T06:29:53.479Z,98506.77
2022-12-08T06:32:27.596Z,98511.02
2022-12-08T06:34:58.519Z,98512.48
2022-12-08T06:37:30.025Z,98510.95
2022-12-08T06:40:00.722Z,98510.80
2022-12-08T06:42:47.347Z,98507.55
2022-12-08T06:45:19.583Z,98509.44
2022-12-08T06:47:50.235Z,98502.55
2022-12-08T06:50:21.324Z,98510.25
2022-12-08T06:53:01.001Z,98510.67
2022-12-08T06:55:57.832Z,98506.87
2022-12-08T06:58:26.581Z,98508.15
2022-12-08T07:00:57.280Z,98511.70
2022-12-08T07:03:27.963Z,98515.16
2022-12-08T07:06:03.838Z,98516.40
2022-12-08T07:08:35.764Z,98518.73
2022-12-08T07:11:12.376Z,98517.83
2022-12-08T07:13:45.170Z,98519.52
2022-12-08T07:16:16.012Z,98519.98
2022-12-08T07:18:46.784Z,98519.23
2022-12-08T07:21:18.892Z,98518.10
2022-12-08T07:23:56.021Z,98515.90
2022-12-08T07:26:28.721Z,98518.25
2022-12-08T07:29:00.941Z,98518.60
2022-12-08T07:31:31.641Z,98519.83
2022-12-08T07:34:02.360Z,98518.89
2022-12-08T07:36:33.745Z,98515.56
2022-12-08T07:39:04.614Z,98509.77
2022-12-08T07:41:35.225Z,98503.63
2022-12-08T07:44:06.163Z,98508.00
2022-12-08T07:46:36.879Z,98512.82
2022-12-08T07:49:07.555Z,98512.02
2022-12-08T07:51:38.146Z,98514.48
2022-12-08T07:54:12.493Z,98512.48
2022-12-08T07:56:43.250Z,98507.05
2022-12-08T07:59:14.698Z,98505.82
2022-12-08T08:01:45.848Z,98509.24
2022-12-08T08:04:17.031Z,98505.05
2022-12-08T08:06:47.753Z,98503.54
2022-12-08T08:09:18.417Z,98501.67
2022-12-08T08:12:14.366Z,98504.09
2022-12-08T08:14:40.013Z,98508.88
2022-12-08T08:17:10.776Z,98511.19
2022-12-08T08:19:42.007Z,98512.31
2022-12-08T08:22:12.627Z,98511.86
2022-12-08T08:24:45.095Z,98508.05
2022-12-08T08:27:16.309Z,98511.02
2022-12-08T08:29:47.192Z,98515.21
2022-12-08T08:32:17.815Z,98516.71
2022-12-08T08:34:48.464Z,98516.02
2022-12-08T08:37:19.243Z,98515.77
2022-12-08T08:39:49.947Z,98514.79
2022-12-08T08:42:20.923Z,98516.01
2022-12-08T08:44:51.518Z,98511.39
2022-12-08T08:47:22.105Z,98515.40
2022-12-08T08:49:53.036Z,98517.00
2022-12-08T08:52:23.633Z,98513.96
2022-12-08T08:54:54.443Z,98513.32
2022-12-08T08:57:26.045Z,98515.22
2022-12-08T08:59:56.967Z,98513.56
2022-12-08T09:02:27.596Z,98514.39
2022-12-08T09:04:58.311Z,98512.36
2022-12-08T09:07:29.187Z,98509.23
2022-12-08T09:10:02.069Z,98508.52
2022-12-08T09:12:33.113Z,98507.38
2022-12-08T09:15:03.672Z,98506.98
2022-12-08T09:17:34.400Z,98510.20
2022-12-08T09:20:05.746Z,98508.47
2022-12-08T09:22:36.885Z,98509.50
2022-12-08T09:25:08.779Z,98510.48
2022-12-08T09:27:39.379Z,98509.70
2022-12-08T09:30:11.816Z,98504.30
2022-12-08T09:32:42.483Z,98505.66
2022-12-08T09:35:13.308Z,98502.55
2022-12-08T09:37:44.021Z,98500.11
2022-12-08T09:40:19.913Z,98501.14
2022-12-08T09:42:56.523Z,98493.80
2022-12-08T09:45:31.326Z,98495.36
2022-12-08T09:48:07.215Z,98489.27
2022-12-08T09:50:41.934Z,98489.11
2022-12-08T09:53:17.126Z,98489.83
2022-12-08T09:55:51.984Z,98484.32
2022-12-08T09:58:28.830Z,98482.23
2022-12-08T10:01:00.007Z,98479.00
2022-12-08T10:03:32.501Z,98480.67
2022-12-08T10:06:08.898Z,98479.38
2022-12-08T10:08:48.695Z,98475.80
2022-12-08T10:11:27.833Z,98474.83
2022-12-08T10:14:09.676Z,98473.20
2022-12-08T10:16:47.220Z,98473.98
2022-12-08T10:19:22.746Z,98471.59
2022-12-08T10:21:54.484Z,98469.05
2022-12-08T10:24:33.589Z,98470.25
2022-12-08T10:27:06.721Z,98464.50
2022-12-08T10:29:37.679Z,98460.27
2022-12-08T10:32:19.335Z,98463.31
2022-12-08T10:35:05.764Z,98460.01
2022-12-08T10:37:36.797Z,98451.44
2022-12-08T10:40:12.480Z,98453.80
2022-12-08T10:42:47.205Z,98453.42
2022-12-08T10:45:26.876Z,98448.31
2022-12-08T10:48:04.202Z,98445.79
2022-12-08T10:50:42.294Z,98440.31
2022-12-08T10:53:20.909Z,98441.75
2022-12-08T10:55:54.005Z,98435.17
2022-12-08T10:58:35.427Z,98438.10
2022-12-08T11:01:12.362Z,98438.52
2022-12-08T11:03:50.187Z,98436.95
2022-12-08T11:06:24.784Z,98438.19
2022-12-08T11:08:57.680Z,98435.43
2022-12-08T11:11:48.640Z,98433.91
2022-12-08T11:14:24.924Z,98430.23
2022-12-08T11:17:03.271Z,98423.86
2022-12-08T11:19:38.209Z,98423.67
2022-12-08T11:22:24.112Z,98420.71
2022-12-08T11:25:03.481Z,98419.83
2022-12-08T11:27:36.705Z,98416.89
2022-12-08T11:30:17.396Z,98409.76
2022-12-08T11:32:50.269Z,98406.78
2022-12-08T11:35:30.686Z,98407.10
2022-12-08T11:38:20.506Z,98405.14
2022-12-08T11:40:55.353Z,98405.20
2022-12-08T11:43:27.239Z,98399.92
2022-12-08T11:46:02.745Z,98400.45
2022-12-08T11:48:37.301Z,98396.00
2022-12-08T11:51:13.435Z,98395.89
2022-12-08T11:53:50.112Z,98392.34
2022-12-08T11:56:25.138Z,98387.06
2022-12-08T11:59:00.478Z,98390.30
2022-12-08T12:01:31.218Z,98386.81
2022-12-08T12:04:18.991Z,98383.23
2022-12-08T12:07:19.412Z,98377.88
2022-12-08T12:10:14.500Z,98384.81
2022-12-08T12:12:57.205Z,98381.68
2022-12-08T12:15:46.015Z,98377.72
2022-12-08T12:18:28.806Z,98375.09
2022-12-08T12:21:03.007Z,98370.61
2022-12-08T12:23:41.088Z,98365.73
2022-12-08T12:26:19.650Z,98369.80
2022-12-08T12:28:54.511Z,98366.94
2022-12-08T12:31:29.790Z,98363.88
2022-12-08T12:34:09.594Z,98362.79
2022-12-08T12:36:53.389Z,98364.77
2022-12-08T12:39:29.372Z,98359.91
2022-12-08T12:42:02.173Z,98359.05
2022-12-08T12:44:44.390Z,98355.92
2022-12-08T12:47:37.285Z,98354.36
2022-12-08T12:50:13.400Z,98352.01
2022-12-08T12:52:48.986Z,98351.67
2022-12-08T12:55:58.644Z,98351.88
2022-12-08T12:58:42.959Z,98354.95
2022-12-08T13:01:53.998Z,98348.23
2022-12-08T13:04:33.885Z,98348.38
2022-12-08T13:07:05.581Z,98343.48
2022-12-08T13:09:41.601Z,98340.69
2022-12-08T13:12:24.280Z,98337.91
2022-12-08T13:14:59.642Z,98334.74
2022-12-08T13:17:31.996Z,98331.87
2022-12-08T13:20:06.256Z,98334.69
2022-12-08T13:23:04.670Z,98332.95
2022-12-08T13:26:15.584Z,98331.48
2022-12-08T13:29:17.728Z,98330.77
2022-12-08T13:31:52.087Z,98328.58
2022-12-08T13:34:29.328Z,98327.97
2022-12-08T13:37:08.939Z,98328.47
2022-12-08T13:39:47.877Z,98327.71
2022-12-08T13:42:27.383Z,98325.80
2022-12-08T13:45:24.130Z,98327.42
2022-12-08T13:57:08.516Z,98331.52
2022-12-08T13:59:36.565Z,98335.38
2022-12-08T14:02:18.772Z,98331.67
2022-12-08T14:07:42.505Z,98336.05
2022-12-08T14:10:20.730Z,98327.95
2022-12-08T14:12:58.267Z,98329.70
2022-12-08T14:15:35.513Z,98330.37
2022-12-08T14:18:22.506Z,98333.00
2022-12-08T14:21:21.573Z,98332.59
2022-12-08T14:23:52.435Z,98333.55
2022-12-08T14:26:23.647Z,98340.02
2022-12-08T14:28:54.387Z,98338.27
2022-12-08T14:31:25.348Z,98340.89
2022-12-08T14:33:56.736Z,98341.14
2022-12-08T14:36:29.073Z,98341.58
2022-12-08T14:39:00.180Z,98341.77
2022-12-08T14:41:35.285Z,98338.73
2022-12-08T14:44:24.073Z,98338.13
2022-12-08T14:47:09.429Z,98334.54
2022-12-08T14:49:41.354Z,98330.53
2022-12-08T14:52:15.787Z,98333.69
2022-12-08T14:54:47.659Z,98332.27
2022-12-08T14:57:18.969Z,98330.23
2022-12-08T14:59:50.726Z,98331.02
2022-12-08T15:02:34.761Z,98326.65
2022-12-08T15:05:13.142Z,98325.30
2022-12-08T15:07:50.954Z,98328.54
2022-12-08T15:10:29.539Z,98333.02
2022-12-08T15:13:02.763Z,98329.55
2022-12-08T15:15:47.980Z,98331.09
2022-12-08T15:18:22.128Z,98334.98
2022-12-08T15:20:56.874Z,98333.89
2022-12-08T15:23:32.597Z,98335.23
2022-12-08T15:26:05.418Z,98336.17
2022-12-08T15:28:36.097Z,98335.86
2022-12-08T15:31:07.365Z,98337.19
2022-12-08T15:33:38.162Z,98339.98
2022-12-08T15:36:09.955Z,98338.99
2022-12-08T15:38:40.691Z,98338.33
2022-12-08T15:41:15.003Z,98341.20
2022-12-08T15:43:46.136Z,98340.57
2022-12-08T15:46:16.914Z,98347.08
2022-12-08T15:48:47.919Z,98345.02
2022-12-08T15:51:18.608Z,98347.39
2022-12-08T15:53:49.232Z,98343.68
2022-12-08T15:56:27.506Z,98344.11
2022-12-08T15:58:59.210Z,98343.54
2022-12-08T16:01:30.396Z,98340.06
2022-12-08T16:09:46.657Z,98343.14
2022-12-08T16:16:01.797Z,98339.76
2022-12-08T16:18:27.994Z,98341.61
2022-12-08T16:21:12.409Z,98335.17
2022-12-08T16:23:49.906Z,98343.85
2022-12-08T16:27:13.875Z,98346.52
2022-12-08T16:29:21.106Z,98345.23
2022-12-08T16:31:52.009Z,98344.84
2022-12-08T16:34:22.775Z,98334.48
2022-12-08T16:36:53.619Z,98351.92
2022-12-08T16:39:24.776Z,98350.63
2022-12-08T16:42:13.715Z,98349.07
2022-12-08T16:44:44.608Z,98343.64
2022-12-08T16:47:15.703Z,98348.98
2022-12-08T16:49:46.478Z,98350.73
2022-12-08T16:52:17.897Z,98347.68
2022-12-08T16:54:48.838Z,98346.70
2022-12-08T16:57:19.585Z,98351.45
2022-12-08T16:59:50.532Z,98351.89
2022-12-08T17:02:21.253Z,98353.02
2022-12-08T17:04:51.994Z,98350.79
2022-12-08T17:07:22.725Z,98348.98
2022-12-08T17:09:53.689Z,98347.83
2022-12-08T17:12:24.550Z,98351.52
2022-12-08T17:14:55.236Z,98351.13
2022-12-08T17:17:25.988Z,98350.90
2022-12-08T17:19:56.882Z,98341.60
2022-12-08T17:22:27.733Z,98347.52
2022-12-08T17:24:58.513Z,98347.59
2022-12-08T17:27:29.746Z,98344.55
2022-12-08T17:30:00.402Z,98347.82
2022-12-08T17:32:31.411Z,98347.39
2022-12-08T17:35:02.231Z,98349.06
2022-12-08T17:37:33.391Z,98348.70
2022-12-08T17:40:04.709Z,98349.67
2022-12-08T17:42:35.647Z,98345.23
2022-12-08T17:45:08.397Z,98345.52
2022-12-08T17:47:39.588Z,98340.67
2022-12-08T17:50:11.867Z,98343.02
2022-12-08T17:52:44.321Z,98343.77
2022-12-08T17:55:15.144Z,98340.64
2022-12-08T17:57:46.450Z,98348.23
2022-12-08T18:00:18.874Z,98341.90
2022-12-08T18:02:50.110Z,98346.38
2022-12-08T18:05:20.956Z,98348.94
2022-12-08T18:07:52.258Z,98349.59
2022-12-08T18:10:23.089Z,98350.38
2022-12-08T18:12:54.275Z,98352.70
2022-12-08T18:15:25.854Z,98356.08
2022-12-08T18:17:56.706Z,98353.48
2022-12-08T18:20:28.174Z,98356.88
2022-12-08T18:22:59.112Z,98352.86
2022-12-08T18:25:30.306Z,98355.52
2022-12-08T18:28:01.223Z,98351.13
2022-12-08T18:30:32.286Z,98353.10
2022-12-08T18:33:06.450Z,98348.38
2022-12-08T18:35:39.500Z,98347.67
2022-12-08T18:38:10.379Z,98350.27
2022-12-08T18:40:41.772Z,98345.83
2022-12-08T18:43:12.867Z,98345.30
2022-12-08T18:45:43.665Z,98343.19
2022-12-08T18:48:14.709Z,98343.98
2022-12-08T18:50:45.934Z,98341.14
2022-12-08T18:53:16.725Z,98337.99
2022-12-08T18:55:50.965Z,98338.27
2022-12-08T18:58:22.214Z,98330.02
2022-12-08T19:00:52.962Z,98324.80
2022-12-08T19:03:23.792Z,98321.02
2022-12-08T19:06:06.695Z,98322.77
2022-12-08T19:08:37.677Z,98318.34
2022-12-08T19:11:17.633Z,98319.27
2022-12-08T19:13:46.900Z,98314.34
2022-12-08T19:16:31.283Z,98313.67
2022-12-08T19:19:02.476Z,98312.77
2022-12-08T19:21:34.120Z,98315.05
2022-12-08T19:24:07.988Z,98312.64
2022-12-08T19:26:37.108Z,98312.13
2022-12-08T19:29:08.405Z,98313.52
2022-12-08T19:31:39.502Z,98314.50
2022-12-08T19:34:11.559Z,98318.23
2022-12-08T19:36:43.508Z,98317.84
2022-12-08T19:39:35.310Z,98318.73
2022-12-08T19:42:24.962Z,98321.19
2022-12-08T19:44:56.145Z,98320.85
2022-12-08T19:47:28.557Z,98318.20
2022-12-08T19:50:13.423Z,98323.01
2022-12-08T19:52:44.844Z,98322.58
2022-12-08T19:55:16.282Z,98317.90
2022-12-08T19:57:47.495Z,98318.60
2022-12-08T20:00:20.699Z,98314.26
2022-12-08T20:02:51.952Z,98310.73
2022-12-08T20:05:23.411Z,98311.10
2022-12-08T20:07:56.249Z,98312.13
2022-12-08T20:10:30.135Z,98311.63
2022-12-08T20:13:13.440Z,98312.48
2022-12-08T20:15:44.661Z,98309.79
2022-12-08T20:18:17.115Z,98308.67
2022-12-08T20:20:48.706Z,98307.55
2022-12-08T20:23:19.615Z,98308.50
2022-12-08T20:25:50.366Z,98310.91
2022-12-08T20:28:21.488Z,98313.16
2022-12-08T20:30:52.739Z,98309.04
2022-12-08T20:33:23.858Z,98310.28
2022-12-08T20:36:02.786Z,98307.63
2022-12-08T20:38:33.858Z,98306.48
2022-12-08T20:41:09.003Z,98310.44
2022-12-08T20:43:40.011Z,98313.05
2022-12-08T20:46:12.703Z,98308.04
2022-12-08T20:48:43.595Z,98309.50
2022-12-08T20:51:18.176Z,98310.83
2022-12-08T20:53:49.280Z,98309.86
2022-12-08T20:56:22.010Z,98309.73
2022-12-08T20:58:53.960Z,98312.80
2022-12-08T21:01:26.416Z,98313.95
2022-12-08T21:03:57.595Z,98317.96
2022-12-08T21:06:29.052Z,98317.57
2022-12-08T21:09:00.010Z,98315.09
2022-12-08T21:11:30.892Z,98315.70
2022-12-08T21:14:01.805Z,98315.99
2022-12-08T21:16:32.911Z,98315.46
2022-12-08T21:19:03.767Z,98315.14
2022-12-08T21:21:35.034Z,98320.52
2022-12-08T21:24:07.884Z,98312.89
2022-12-08T21:26:38.903Z,98319.55
2022-12-08T21:29:10.066Z,98316.48
2022-12-08T21:31:41.809Z,98317.03
2022-12-08T21:34:13.144Z,98318.59
2022-12-08T21:36:43.989Z,98319.69
2022-12-08T21:39:14.705Z,98320.23
2022-12-08T21:42:03.512Z,98321.78
2022-12-08T21:44:36.285Z,98320.47
2022-12-08T21:47:07.608Z,98322.58
2022-12-08T21:49:38.508Z,98322.70
2022-12-08T21:52:09.465Z,98320.89
2022-12-08T21:54:40.248Z,98323.33
2022-12-08T21:57:12.495Z,98320.81
2022-12-08T21:59:43.792Z,98323.20
2022-12-08T22:02:20.953Z,98316.09
2022-12-08T22:04:53.892Z,98319.70
2022-12-08T22:07:24.768Z,98310.25
2022-12-08T22:09:55.727Z,98309.97
2022-12-08T22:12:26.728Z,98309.30
2022-12-08T22:14:57.535Z,98311.11
2022-12-08T22:17:28.353Z,98311.98
2022-12-08T22:19:59.151Z,98315.92
2022-12-08T22:22:29.951Z,98315.80
2022-12-08T22:25:00.758Z,98310.15
2022-12-08T22:27:31.910Z,98311.14
2022-12-08T22:30:02.911Z,98317.42
2022-12-08T22:32:34.332Z,98321.16
2022-12-08T22:35:05.668Z,98319.98
2022-12-08T22:37:36.480Z,98322.24
2022-12-08T22:40:09.635Z,98320.15
2022-12-08T22:42:41.228Z,98322.67
2022-12-08T22:45:13.189Z,98327.02
2022-12-08T22:47:43.857Z,98329.34
2022-12-08T22:50:15.017Z,98331.06
2022-12-08T22:52:45.833Z,98330.66
2022-12-08T22:55:16.709Z,98327.48
2022-12-08T22:57:47.426Z,98330.80
2022-12-08T23:00:19.527Z,98334.38
2022-12-08T23:02:50.260Z,98332.40
2022-12-08T23:05:21.292Z,98332.61
2022-12-08T23:07:53.460Z,98329.88
2022-12-08T23:10:24.779Z,98335.62
2022-12-08T23:12:59.220Z,98339.04
2022-12-08T23:15:33.552Z,98334.17
2022-12-08T23:18:04.544Z,98338.17
2022-12-08T23:20:36.195Z,98337.35
2022-12-08T23:23:06.985Z,98340.35
2022-12-08T23:25:40.434Z,98346.70
2022-12-08T23:28:14.374Z,98344.98
2022-12-08T23:30:45.217Z,98346.36
2022-12-08T23:33:16.249Z,98346.23
2022-12-08T23:35:47.210Z,98340.11
2022-12-08T23:38:17.964Z,98335.67
2022-12-08T23:40:48.600Z,98338.03
2022-12-08T23:43:19.334Z,98334.59
2022-12-08T23:45:50.699Z,98332.14
2022-12-08T23:48:21.890Z,98329.89
2022-12-08T23:50:52.707Z,98326.64
2022-12-08T23:53:24.072Z,98326.29
2022-12-08T23:56:01.444Z,98321.36
2022-12-08T23:58:32.904Z,98319.27
